Time;durP1;ratioP1;P1;durP2;ratioP2;P2;SDS_P1;SDS_P2;PMS_P1;PMS_P2;Temp;Humidity;BMP_temperature;BMP_pressure;BME280_temperature;BME280_humidity;BME280_pressure;Samples;Min_cycle;Max_cycle;Signal;HPM_P1;HPM_P2
2021/03/31 00:00:40;;;;;;;38.4;33.8;;;;;;;8.2;100;99802.38;;;;
2021/03/31 00:10:38;;;;;;;36.9;30.7;;;;;;;7.78;100;99797.05;;;;
2021/03/31 00:20:37;;;;;;;32.3;28.5;;;;;;;7.57;100;99795.3;;;;
2021/03/31 00:30:35;;;;;;;38;28.7;;;;;;;7.54;100;99777.86;;;;
2021/03/31 00:40:33;;;;;;;41.8;28.4;;;;;;;7.57;100;99776.52;;;;
2021/03/31 00:50:32;;;;;;;32.4;27.9;;;;;;;7.32;100;99763.77;;;;
2021/03/31 01:00:30;;;;;;;35.8;25.4;;;;;;;7.07;100;99761.7;;;;
2021/03/31 01:10:28;;;;;;;34.7;28.3;;;;;;;6.86;100;99775.98;;;;
2021/03/31 01:20:36;;;;;;;28.7;22.9;;;;;;;6.56;100;99767.63;;;;
2021/03/31 01:30:25;;;;;;;28.7;23.7;;;;;;;6.26;100;99772.66;;;;
2021/03/31 01:40:23;;;;;;;37.2;25.6;;;;;;;6.04;100;99772.65;;;;
2021/03/31 01:50:21;;;;;;;27.6;23.1;;;;;;;5.84;100;99775.84;;;;
2021/03/31 02:20:19;;;;;;;32.6;26.3;;;;;;;5.78;100;99766.14;;;;
2021/03/31 02:30:20;;;;;;;32.6;29.2;;;;;;;5.81;100;99752.27;;;;
2021/03/31 02:40:18;;;;;;;33.5;28.9;;;;;;;6.19;100;99753.3;;;;
2021/03/31 02:50:10;;;;;;;35.5;27.6;;;;;;;6.31;100;99740.59;;;;
2021/03/31 03:00:09;;;;;;;32.4;24.4;;;;;;;6.24;100;99750.69;;;;
2021/03/31 03:10:07;;;;;;;28.1;22.5;;;;;;;6.06;100;99752.63;;;;
2021/03/31 03:20:05;;;;;;;37.3;32.3;;;;;;;5.71;100;99746.79;;;;
2021/03/31 03:30:03;;;;;;;37.6;30;;;;;;;5.39;100;99738.59;;;;
2021/03/31 03:40:01;;;;;;;31.8;28.4;;;;;;;5.18;100;99717.14;;;;
2021/03/31 03:49:59;;;;;;;25.3;21.6;;;;;;;5.08;100;99710.59;;;;
2021/03/31 03:59:57;;;;;;;37.1;29.2;;;;;;;4.95;100;99710.94;;;;
2021/03/31 04:09:55;;;;;;;37;27;;;;;;;4.85;100;99696.61;;;;
2021/03/31 04:19:53;;;;;;;36.3;29.6;;;;;;;4.67;100;99702.98;;;;
2021/03/31 04:29:52;;;;;;;41.1;35;;;;;;;4.44;100;99708.47;;;;
2021/03/31 04:39:50;;;;;;;41.7;35.6;;;;;;;4.39;100;99700.36;;;;
2021/03/31 04:49:47;;;;;;;31.6;27.7;;;;;;;4.59;100;99698.03;;;;
2021/03/31 04:59:45;;;;;;;36.2;30.5;;;;;;;4.8;100;99699.19;;;;
2021/03/31 05:09:43;;;;;;;33.2;27.2;;;;;;;4.91;100;99699.11;;;;
2021/03/31 05:19:41;;;;;;;36;31.3;;;;;;;5.18;100;99690.41;;;;
2021/03/31 05:29:39;;;;;;;43.8;37.3;;;;;;;5.49;100;99690.6;;;;
2021/03/31 05:39:38;;;;;;;42.3;37.9;;;;;;;5.68;100;99703.69;;;;
2021/03/31 05:49:36;;;;;;;44.1;39.4;;;;;;;6.15;100;99691.42;;;;
2021/03/31 05:59:34;;;;;;;47.2;40.6;;;;;;;6.69;100;99678.03;;;;
2021/03/31 06:09:32;;;;;;;61.5;42.7;;;;;;;7.2;100;99682.7;;;;
2021/03/31 06:19:30;;;;;;;42;35.9;;;;;;;7.49;100;99683.15;;;;
2021/03/31 06:29:29;;;;;;;44.9;36;;;;;;;8.18;100;99686.38;;;;
2021/03/31 06:39:31;;;;;;;45.4;32.3;;;;;;;8.79;100;99684.59;;;;
2021/03/31 06:49:26;;;;;;;30.1;26.9;;;;;;;9.61;100;99700.34;;;;
2021/03/31 06:59:24;;;;;;;28.6;25;;;;;;;10.21;100;99692.31;;;;
2021/03/31 07:09:23;;;;;;;25.3;21.9;;;;;;;10.96;100;99682.91;;;;
2021/03/31 07:19:22;;;;;;;28.5;24.2;;;;;;;11.77;100;99693.7;;;;
2021/03/31 07:29:20;;;;;;;25.9;21.3;;;;;;;12.39;100;99667.52;;;;
2021/03/31 07:39:19;;;;;;;29.3;23.3;;;;;;;13.05;100;99670.76;;;;
2021/03/31 07:49:18;;;;;;;31.9;21.1;;;;;;;13.58;100;99673.88;;;;
2021/03/31 07:59:19;;;;;;;28.6;25.5;;;;;;;14.06;97.44336;99673.45;;;;
2021/03/31 08:09:26;;;;;;;31.3;27.2;;;;;;;14.46;94.35254;99672.61;;;;
2021/03/31 08:19:19;;;;;;;32.7;28.6;;;;;;;14.85;89.14844;99661.09;;;;
2021/03/31 08:29:43;;;;;;;30.1;26.9;;;;;;;15.3;88.15918;99652.89;;;;
2021/03/31 08:39:16;;;;;;;31.8;25.4;;;;;;;15.56;84.10352;99657.34;;;;
2021/03/31 08:49:27;;;;;;;35.9;25.2;;;;;;;15.89;81.65625;99636.03;;;;
2021/03/31 08:59:21;;;;;;;36;27.1;;;;;;;16.24;80.69434;99631.44;;;;
2021/03/31 09:09:13;;;;;;;31.5;23.3;;;;;;;16.48;78.92188;99615.44;;;;
2021/03/31 09:19:12;;;;;;;32.9;24.1;;;;;;;16.88;78.37402;99607.88;;;;
2021/03/31 09:29:12;;;;;;;29.7;24.3;;;;;;;17.27;78.32715;99600.55;;;;
2021/03/31 09:39:12;;;;;;;33.4;25.2;;;;;;;17.55;76.75195;99594.33;;;;
2021/03/31 09:49:11;;;;;;;25.7;21.2;;;;;;;17.88;76.1875;99580.84;;;;
2021/03/31 09:59:11;;;;;;;23.8;21.3;;;;;;;18.21;75.57617;99566.48;;;;
2021/03/31 10:09:10;;;;;;;19.2;17.1;;;;;;;18.32;76.0791;99573.14;;;;
2021/03/31 10:19:10;;;;;;;18.6;16.7;;;;;;;18.91;73.29102;99562.78;;;;
2021/03/31 10:29:10;;;;;;;19.9;17.3;;;;;;;18.94;73.14746;99557.44;;;;
2021/03/31 10:39:35;;;;;;;20.6;16.9;;;;;;;19.26;73.28027;99536.64;;;;
2021/03/31 10:49:17;;;;;;;26.9;17.8;;;;;;;19.51;71.5918;99519.09;;;;
2021/03/31 10:59:10;;;;;;;18.2;15.5;;;;;;;19.69;72.48633;99508.7;;;;
2021/03/31 11:09:10;;;;;;;14.2;11.2;;;;;;;19.85;69.03516;99504.13;;;;
2021/03/31 11:19:20;;;;;;;12.4;8.6;;;;;;;20.05;70.39746;99489.45;;;;
2021/03/31 11:29:10;;;;;;;14.9;13.3;;;;;;;20.16;68.50586;99478.81;;;;
2021/03/31 11:39:10;;;;;;;13;9.6;;;;;;;20.2;69.04297;99457.01;;;;
2021/03/31 11:49:10;;;;;;;9.6;6.5;;;;;;;20.51;66.4541;99444.17;;;;
2021/03/31 11:59:10;;;;;;;6.8;4.2;;;;;;;20.46;65.64746;99436.23;;;;
2021/03/31 12:09:11;;;;;;;7.8;4.3;;;;;;;20.47;66.7832;99417.86;;;;
2021/03/31 12:19:10;;;;;;;6;2.4;;;;;;;20.75;64.19336;99401.34;;;;
2021/03/31 12:29:10;;;;;;;7.3;2.4;;;;;;;20.71;64.43262;99390.3;;;;
2021/03/31 12:39:10;;;;;;;5.3;2.6;;;;;;;20.66;64.1582;99374.11;;;;
2021/03/31 12:49:10;;;;;;;4.9;2.9;;;;;;;20.83;64.07813;99357.3;;;;
2021/03/31 12:59:10;;;;;;;2.7;1;;;;;;;21.01;62.36328;99338.52;;;;
2021/03/31 13:09:10;;;;;;;3.9;1.9;;;;;;;21;60.5166;99329.49;;;;
2021/03/31 13:29:27;;;;;;;3.8;2.3;;;;;;;21.29;61.33496;99299.97;;;;
2021/03/31 13:39:14;;;;;;;4.5;2.3;;;;;;;21.39;59.74512;99291.16;;;;
2021/03/31 13:49:12;;;;;;;5.8;2.3;;;;;;;21.55;60.71973;99278.18;;;;
2021/03/31 13:59:10;;;;;;;7.2;2.7;;;;;;;21.75;59.15234;99263.27;;;;
2021/03/31 14:09:10;;;;;;;4.4;2.1;;;;;;;21.55;60.01074;99253.49;;;;
2021/03/31 14:19:10;;;;;;;4.9;2.2;;;;;;;21.77;60.77148;99233.49;;;;
2021/03/31 14:29:11;;;;;;;5.1;2;;;;;;;21.9;58.70703;99223.94;;;;
2021/03/31 14:39:12;;;;;;;4.1;2.1;;;;;;;22.04;58.15527;99210.45;;;;
2021/03/31 14:49:13;;;;;;;7.6;3.4;;;;;;;22.43;58.03125;99189.06;;;;
2021/03/31 15:09:11;;;;;;;3.8;1.3;;;;;;;22.27;55.375;99163.73;;;;
2021/03/31 15:19:17;;;;;;;3.8;1.8;;;;;;;23.55;51.4248;99157.82;;;;
2021/03/31 15:29:12;;;;;;;5.4;2.3;;;;;;;25.67;46.1582;99150.63;;;;
2021/03/31 15:39:13;;;;;;;7.7;2.4;;;;;;;26.84;36.67188;99134.61;;;;
2021/03/31 15:49:13;;;;;;;6.4;2.9;;;;;;;27.09;34.52148;99133.69;;;;
2021/03/31 15:59:17;;;;;;;5.2;2.9;;;;;;;27.16;35.08496;99126.14;;;;
2021/03/31 16:09:17;;;;;;;5.7;2.4;;;;;;;26.66;35.50781;99119.27;;;;
2021/03/31 16:19:17;;;;;;;11.1;3.6;;;;;;;27.06;35.91895;99112.36;;;;
2021/03/31 16:29:30;;;;;;;8.4;3.2;;;;;;;26.4;37.02734;99104.75;;;;
2021/03/31 16:39:18;;;;;;;5;2.9;;;;;;;24.54;38.0166;99092.38;;;;
2021/03/31 16:49:19;;;;;;;5.7;2.4;;;;;;;22.43;41.56543;99081.94;;;;
2021/03/31 16:59:19;;;;;;;6.6;2.7;;;;;;;20.71;44.56641;99069.78;;;;
2021/03/31 17:09:19;;;;;;;8.4;3;;;;;;;19.26;47.42871;99068.47;;;;
2021/03/31 17:19:19;;;;;;;9.2;4.7;;;;;;;17.94;50.92188;99055.88;;;;
2021/03/31 17:29:19;;;;;;;13.4;9.4;;;;;;;16.95;52.91895;99058.11;;;;
2021/03/31 17:39:19;;;;;;;19.2;13.3;;;;;;;16.24;55.18164;99060.23;;;;
2021/03/31 17:49:18;;;;;;;15.3;11.1;;;;;;;15.74;58.14063;99054.84;;;;
2021/03/31 17:59:21;;;;;;;107.4;93.4;;;;;;;15.19;61.04688;99056.87;;;;
2021/03/31 18:09:17;;;;;;;66.4;59.2;;;;;;;14.74;61.72949;99049.2;;;;
2021/03/31 18:19:17;;;;;;;31.7;24.7;;;;;;;14.46;61.9541;99046.06;;;;
2021/03/31 18:29:17;;;;;;;24.9;20.5;;;;;;;14.27;63.08105;99040.14;;;;
2021/03/31 18:39:17;;;;;;;46.9;41.9;;;;;;;13.97;64.17969;99044.62;;;;
2021/03/31 18:49:14;;;;;;;161.5;137;;;;;;;13.68;66.32617;99038.19;;;;
2021/03/31 18:59:12;;;;;;;84.7;67.3;;;;;;;13.34;67.9707;99036.21;;;;
2021/03/31 19:19:10;;;;;;;23.6;18.4;;;;;;;13.12;69.91699;99030.91;;;;
2021/03/31 19:29:09;;;;;;;38.8;30.9;;;;;;;13.17;71.10645;99022.63;;;;
2021/03/31 19:39:08;;;;;;;35.8;30.2;;;;;;;12.74;71.85547;99017.03;;;;
2021/03/31 19:49:07;;;;;;;45.9;33.7;;;;;;;12.42;73.61914;99010;;;;
2021/03/31 19:59:06;;;;;;;55.4;40;;;;;;;12.05;76.74121;99003.86;;;;
2021/03/31 20:09:05;;;;;;;48.6;38.5;;;;;;;11.74;78.24707;99002.97;;;;
2021/03/31 20:19:03;;;;;;;62.7;44.2;;;;;;;11.47;80.20996;98997.61;;;;
2021/03/31 20:29:02;;;;;;;65.4;45.3;;;;;;;11.31;82.03223;98999.84;;;;
2021/03/31 20:39:01;;;;;;;57.5;43.7;;;;;;;11.15;83.46875;98998.55;;;;
2021/03/31 20:49:00;;;;;;;37;30.7;;;;;;;11.02;83.77148;98981.28;;;;
2021/03/31 20:58:58;;;;;;;53.6;40.6;;;;;;;11.02;87.53418;98975.88;;;;
2021/03/31 21:08:58;;;;;;;41.2;31.3;;;;;;;10.86;87.23145;98971.91;;;;
2021/03/31 21:18:56;;;;;;;33.7;23.9;;;;;;;10.9;88.00195;98955.89;;;;
2021/03/31 21:28:54;;;;;;;28.8;21.4;;;;;;;10.94;87.45996;98956.89;;;;
2021/03/31 21:38:53;;;;;;;26.4;18.3;;;;;;;10.85;86.75488;98953.31;;;;
2021/03/31 21:48:52;;;;;;;19.3;16.7;;;;;;;10.63;86.95996;98951.3;;;;
2021/03/31 21:58:50;;;;;;;24.9;19.5;;;;;;;10.51;86.74414;98945.61;;;;
2021/03/31 22:08:49;;;;;;;19.4;14.7;;;;;;;10.24;88.0625;98946.34;;;;
2021/03/31 22:18:48;;;;;;;19;13.6;;;;;;;10.16;94.08496;98938.97;;;;
2021/03/31 22:28:46;;;;;;;23.4;14.5;;;;;;;10.03;93.45215;98940.48;;;;
2021/03/31 22:38:46;;;;;;;24.2;15.2;;;;;;;9.91;94.79297;98940.16;;;;
2021/03/31 22:48:43;;;;;;;15.1;13.5;;;;;;;9.84;97.99316;98934.35;;;;
2021/03/31 22:58:42;;;;;;;14.8;13.1;;;;;;;9.9;100;98926.98;;;;
2021/03/31 23:08:40;;;;;;;17.3;14.1;;;;;;;9.95;100;98926.91;;;;
2021/03/31 23:18:39;;;;;;;28.6;17.8;;;;;;;9.9;100;98922.4;;;;
2021/03/31 23:28:37;;;;;;;36.9;17.8;;;;;;;9.84;100;98907.43;;;;
2021/03/31 23:38:36;;;;;;;20.7;13.7;;;;;;;10;100;98881.84;;;;
2021/03/31 23:48:34;;;;;;;27.6;16.9;;;;;;;9.98;100;98883.23;;;;
2021/03/31 23:58:33;;;;;;;28.6;20.9;;;;;;;9.77;100;98872.02;;;;
